Time;durP1;ratioP1;P1;durP2;ratioP2;P2;SDS_P1;SDS_P2;PMS_P1;PMS_P2;Temp;Humidity;BMP_temperature;BMP_pressure;BME280_temperature;BME280_humidity;BME280_pressure;Samples;Min_cycle;Max_cycle;Signal;HPM_P1;HPM_P2
2023/07/06 04:02:15;;;;;;;1.97;1.63;;;15.20;95.90;;;;;;5218627;23;20658;-85
2023/07/06 04:04:42;;;;;;;1.30;1.20;;;15.20;95.90;;;;;;4969005;28;20564;-86
2023/07/06 04:07:10;;;;;;;1.23;1.23;;;15.20;96.00;;;;;;4970008;28;20433;-87
2023/07/06 04:09:36;;;;;;;2.13;1.97;;;15.20;96.20;;;;;;4969615;28;20426;-85
2023/07/06 04:12:02;;;;;;;2.30;1.53;;;15.20;96.90;;;;;;4958327;28;20452;-85
2023/07/06 04:14:27;;;;;;;1.50;1.40;;;15.20;97.10;;;;;;4952132;29;20665;-86
2023/07/06 04:17:02;;;;;;;1.43;1.40;;;15.10;97.20;;;;;;5010332;23;20633;-91
2023/07/06 04:19:30;;;;;;;1.50;1.40;;;15.10;97.20;;;;;;4969275;28;20678;-89
2023/07/06 04:22:03;;;;;;;2.80;1.93;;;15.10;97.30;;;;;;4963111;28;20406;-90
2023/07/06 04:24:31;;;;;;;2.13;1.03;;;15.10;97.30;;;;;;4971378;28;20416;-90
2023/07/06 04:27:00;;;;;;;1.70;1.70;;;15.10;97.30;;;;;;4968832;28;20441;-89
2023/07/06 04:29:29;;;;;;;4.80;2.00;;;15.10;97.30;;;;;;4970614;28;20430;-90
2023/07/06 04:32:00;;;;;;;1.27;1.17;;;15.00;97.30;;;;;;4970184;28;20417;-89
2023/07/06 04:34:33;;;;;;;2.47;1.90;;;15.00;97.30;;;;;;4974084;28;20410;-89
2023/07/06 04:37:02;;;;;;;3.03;1.60;;;15.00;97.30;;;;;;4973254;28;21065;-91
2023/07/06 04:39:30;;;;;;;2.30;2.10;;;15.00;97.30;;;;;;4974200;28;20418;-90
2023/07/06 04:42:03;;;;;;;2.03;1.43;;;15.00;97.30;;;;;;4975633;28;20427;-89
2023/07/06 04:44:31;;;;;;;1.60;1.50;;;15.00;97.30;;;;;;4969268;28;21151;-90
2023/07/06 04:46:59;;;;;;;1.83;1.43;;;15.00;97.30;;;;;;4973859;28;20544;-91
2023/07/06 04:49:32;;;;;;;5.33;2.13;;;14.90;97.30;;;;;;4973393;28;20503;-91
2023/07/06 04:52:02;;;;;;;1.27;1.23;;;15.00;97.30;;;;;;4975159;28;20827;-92
2023/07/06 04:54:31;;;;;;;1.20;1.10;;;15.00;97.30;;;;;;4974786;28;20967;-89
2023/07/06 04:57:03;;;;;;;1.50;1.40;;;15.00;97.30;;;;;;4974919;28;20465;-90
2023/07/06 04:59:29;;;;;;;1.73;1.33;;;15.00;97.30;;;;;;4973075;28;20418;-90
2023/07/06 05:02:00;;;;;;;1.57;1.47;;;15.10;97.30;;;;;;4974176;28;20422;-89
2023/07/06 05:04:30;;;;;;;2.30;1.30;;;15.10;97.30;;;;;;4974102;28;20952;-89
2023/07/06 05:07:03;;;;;;;2.17;2.00;;;15.20;97.30;;;;;;4965842;28;20446;-90
2023/07/06 05:09:32;;;;;;;1.43;1.10;;;15.30;97.30;;;;;;4974351;28;20437;-91
2023/07/06 05:12:00;;;;;;;2.17;1.80;;;15.30;97.30;;;;;;4971625;28;20959;-90
2023/07/06 05:14:31;;;;;;;2.37;1.20;;;15.40;97.20;;;;;;4979242;28;20413;-90
2023/07/06 05:17:13;;;;;;;6.00;2.07;;;15.50;96.90;;;;;;4985548;28;20505;-89
2023/07/06 05:19:42;;;;;;;2.80;1.70;;;15.50;96.40;;;;;;4986609;28;20425;-91
2023/07/06 05:22:12;;;;;;;1.80;1.70;;;15.60;96.40;;;;;;4980194;28;20425;-89
2023/07/06 05:24:40;;;;;;;2.67;1.27;;;15.70;96.20;;;;;;4979218;28;20433;-92
2023/07/06 05:27:13;;;;;;;1.70;1.60;;;15.70;96.40;;;;;;4986539;28;20446;-91
2023/07/06 05:29:41;;;;;;;2.23;2.03;;;15.80;96.10;;;;;;4987053;28;20449;-95
2023/07/06 05:32:10;;;;;;;1.30;1.30;;;15.90;95.70;;;;;;4987209;28;20967;-90
2023/07/06 05:34:35;;;;;;;1.40;1.30;;;15.90;95.90;;;;;;4976875;28;20422;-89
2023/07/06 05:37:02;;;;;;;7.70;1.27;;;15.90;95.60;;;;;;4975174;28;20623;-89
2023/07/06 05:39:30;;;;;;;1.40;1.30;;;16.00;95.70;;;;;;4974968;28;20571;-89
2023/07/06 05:42:33;;;;;;;1.20;1.00;;;16.10;95.40;;;;;;4973452;28;20733;-90
2023/07/06 05:45:01;;;;;;;1.10;1.00;;;16.10;95.20;;;;;;4972692;28;20453;-89
2023/07/06 05:47:29;;;;;;;2.07;1.93;;;16.20;95.10;;;;;;4972610;28;20497;-91
2023/07/06 05:49:59;;;;;;;1.20;1.10;;;16.30;95.30;;;;;;4972548;28;20465;-89
2023/07/06 05:52:32;;;;;;;1.77;1.67;;;16.30;95.30;;;;;;4971927;28;20457;-91
2023/07/06 05:55:00;;;;;;;4.80;2.30;;;16.40;94.80;;;;;;4971472;28;20474;-90
2023/07/06 05:57:33;;;;;;;1.70;1.60;;;16.50;94.80;;;;;;4972035;28;20497;-90
2023/07/06 06:00:01;;;;;;;1.17;1.07;;;16.50;94.50;;;;;;4972173;28;20452;-91
2023/07/06 06:02:31;;;;;;;2.30;1.10;;;16.60;94.20;;;;;;4968407;28;20449;-90
2023/07/06 06:04:56;;;;;;;2.60;2.20;;;16.60;94.50;;;;;;4971626;28;20546;-90
2023/07/06 06:07:22;;;;;;;3.07;1.23;;;16.70;94.20;;;;;;4973255;28;20488;-89
2023/07/06 06:09:51;;;;;;;7.00;1.73;;;16.70;93.70;;;;;;4972944;28;20585;-90
2023/07/06 06:12:20;;;;;;;4.40;1.83;;;16.80;93.80;;;;;;4971023;28;20619;-90
2023/07/06 06:14:50;;;;;;;1.77;1.53;;;16.80;93.60;;;;;;4974384;28;20425;-89
2023/07/06 06:17:20;;;;;;;5.43;2.40;;;16.90;93.50;;;;;;4972014;28;21085;-90
2023/07/06 06:19:53;;;;;;;4.63;1.90;;;16.90;93.20;;;;;;4971865;28;20513;-89
2023/07/06 06:22:21;;;;;;;1.47;1.40;;;17.00;93.30;;;;;;4971130;28;20426;-92
2023/07/06 06:24:49;;;;;;;4.40;2.90;;;17.00;93.70;;;;;;4972325;28;20419;-89
2023/07/06 06:27:19;;;;;;;1.73;1.50;;;17.10;92.80;;;;;;4971098;28;20449;-90
2023/07/06 06:29:53;;;;;;;1.73;1.30;;;17.20;92.90;;;;;;4971128;28;20434;-91
2023/07/06 06:32:22;;;;;;;13.63;1.73;;;17.20;92.90;;;;;;4964738;28;20421;-90
2023/07/06 06:34:49;;;;;;;4.47;1.90;;;17.30;92.50;;;;;;4970756;28;20817;-90
2023/07/06 06:37:16;;;;;;;2.63;1.43;;;17.30;92.40;;;;;;4971056;28;20493;-91
2023/07/06 06:39:43;;;;;;;1.13;1.03;;;17.40;92.50;;;;;;4971672;28;20716;-89
2023/07/06 06:42:13;;;;;;;1.30;1.20;;;17.50;91.80;;;;;;4972269;28;20422;-89
2023/07/06 06:44:43;;;;;;;2.83;1.77;;;17.50;91.60;;;;;;4972094;28;20425;-91
2023/07/06 06:47:09;;;;;;;5.63;1.93;;;17.60;91.70;;;;;;4966841;28;20581;-89
2023/07/06 06:49:35;;;;;;;3.20;1.50;;;17.70;91.50;;;;;;4968386;28;20525;-90
2023/07/06 06:52:02;;;;;;;1.27;1.17;;;17.80;90.80;;;;;;4970439;28;20325;-91
2023/07/06 06:54:30;;;;;;;1.00;0.93;;;17.90;90.70;;;;;;4967520;28;20721;-89
2023/07/06 06:56:56;;;;;;;5.10;2.23;;;18.00;90.90;;;;;;4969504;28;20840;-90
2023/07/06 06:59:21;;;;;;;2.93;1.53;;;18.00;90.50;;;;;;4969643;28;20445;-90
2023/07/06 07:01:48;;;;;;;1.53;1.43;;;18.10;89.60;;;;;;4970772;28;20178;-90
2023/07/06 07:04:13;;;;;;;1.50;1.40;;;18.20;90.00;;;;;;4970361;28;20683;-90
2023/07/06 07:06:39;;;;;;;1.27;1.17;;;18.20;90.00;;;;;;4969373;28;20457;-91
2023/07/06 07:09:09;;;;;;;2.37;1.87;;;18.30;90.20;;;;;;4969718;28;20382;-91
2023/07/06 07:11:35;;;;;;;1.27;1.10;;;18.40;89.40;;;;;;4972353;28;20664;-91
2023/07/06 07:14:00;;;;;;;1.10;1.00;;;18.50;88.50;;;;;;4970642;28;20432;-90
2023/07/06 07:16:26;;;;;;;1.30;1.20;;;18.50;88.20;;;;;;4969675;28;20237;-91
2023/07/06 07:18:51;;;;;;;5.00;1.37;;;18.60;89.00;;;;;;4968821;28;20186;-91
2023/07/06 07:21:19;;;;;;;3.80;1.83;;;18.70;88.70;;;;;;4970475;28;20186;-91
2023/07/06 07:23:47;;;;;;;1.27;1.20;;;18.80;88.10;;;;;;4971550;28;20221;-90
2023/07/06 07:26:15;;;;;;;2.17;1.03;;;18.80;87.70;;;;;;4970141;28;20472;-92
2023/07/06 07:28:41;;;;;;;1.17;1.07;;;18.90;88.10;;;;;;4970634;28;20433;-91
2023/07/06 07:31:10;;;;;;;1.30;1.20;;;18.90;87.60;;;;;;4969409;28;20434;-90
2023/07/06 07:33:43;;;;;;;1.90;1.43;;;19.00;87.90;;;;;;4972213;28;20218;-93
2023/07/06 07:36:10;;;;;;;1.30;1.20;;;19.10;87.60;;;;;;4970303;28;20564;-91
2023/07/06 07:38:36;;;;;;;1.50;1.13;;;19.20;86.10;;;;;;4971514;28;20424;-91
2023/07/06 07:41:03;;;;;;;1.30;1.20;;;19.20;85.80;;;;;;4970693;28;20430;-90
2023/07/06 07:43:35;;;;;;;1.20;1.10;;;19.40;85.70;;;;;;4970630;28;20426;-92
2023/07/06 07:46:06;;;;;;;1.03;0.93;;;19.40;85.40;;;;;;4971369;28;20437;-92
2023/07/06 07:48:38;;;;;;;1.30;1.20;;;19.50;85.20;;;;;;4969438;28;20432;-90
2023/07/06 07:51:07;;;;;;;1.33;1.23;;;19.60;85.00;;;;;;4970863;28;20455;-91
2023/07/06 07:53:35;;;;;;;1.17;1.00;;;19.60;84.20;;;;;;4968397;28;20767;-92
2023/07/06 07:56:01;;;;;;;1.20;1.10;;;19.70;83.20;;;;;;4969102;28;20991;-91
2023/07/06 07:58:27;;;;;;;1.10;1.00;;;19.70;82.70;;;;;;4967918;28;20418;-92
2023/07/06 08:00:56;;;;;;;0.93;0.87;;;19.80;82.80;;;;;;4970102;28;20418;-91
2023/07/06 08:03:27;;;;;;;1.00;0.90;;;19.80;82.80;;;;;;4968807;28;20430;-91
2023/07/06 08:05:57;;;;;;;0.97;0.93;;;19.90;82.80;;;;;;4970173;28;20446;-91
2023/07/06 08:08:24;;;;;;;1.43;1.10;;;20.00;82.70;;;;;;4972719;28;20433;-91
2023/07/06 08:10:52;;;;;;;1.50;1.40;;;20.00;83.30;;;;;;4974387;28;20457;-91
2023/07/06 08:13:17;;;;;;;3.13;2.30;;;20.10;83.90;;;;;;4962239;28;20434;-90
2023/07/06 08:15:44;;;;;;;2.17;1.10;;;20.20;83.00;;;;;;4969062;28;20472;-90
2023/07/06 08:18:10;;;;;;;1.00;0.90;;;20.30;82.90;;;;;;4974281;28;20564;-92
2023/07/06 08:20:37;;;;;;;1.00;0.90;;;20.40;81.60;;;;;;4974077;28;20418;-91
2023/07/06 08:23:06;;;;;;;1.67;1.57;;;20.50;81.30;;;;;;4976139;28;20789;-91
2023/07/06 08:25:37;;;;;;;1.50;1.40;;;20.60;81.80;;;;;;4973366;28;20433;-91
2023/07/06 08:28:04;;;;;;;3.63;1.40;;;20.60;81.80;;;;;;4973898;28;20512;-89
2023/07/06 08:30:29;;;;;;;1.30;1.20;;;20.70;81.60;;;;;;4974424;28;20416;-91
2023/07/06 08:32:55;;;;;;;2.10;1.40;;;20.80;81.40;;;;;;4974243;28;20452;-91
2023/07/06 08:35:21;;;;;;;2.60;1.23;;;20.90;80.70;;;;;;4973927;28;20185;-90
2023/07/06 08:37:46;;;;;;;1.30;1.10;;;20.90;79.80;;;;;;4972750;28;20461;-90
2023/07/06 08:40:14;;;;;;;1.23;1.13;;;21.00;79.70;;;;;;4958489;28;20283;-91
2023/07/06 08:42:43;;;;;;;1.03;1.00;;;21.10;79.00;;;;;;4971831;28;20410;-90
2023/07/06 08:45:16;;;;;;;1.50;1.40;;;21.10;79.70;;;;;;4975817;28;20512;-90
2023/07/06 08:47:44;;;;;;;1.30;1.20;;;21.20;79.20;;;;;;4973542;28;20430;-90
2023/07/06 08:50:10;;;;;;;1.77;1.03;;;21.30;78.30;;;;;;4972200;28;20528;-91
2023/07/06 08:52:37;;;;;;;2.60;1.63;;;21.40;79.10;;;;;;4974328;28;20488;-91
2023/07/06 08:55:15;;;;;;;4.10;2.10;;;21.40;78.30;;;;;;4974777;28;20437;-90
2023/07/06 08:57:41;;;;;;;1.17;1.07;;;21.50;78.60;;;;;;4973491;28;20515;-89
2023/07/06 09:00:21;;;;;;;1.23;1.10;;;21.60;78.70;;;;;;4973536;28;20422;-92
2023/07/06 09:02:49;;;;;;;1.40;1.30;;;21.70;77.40;;;;;;4973645;28;20501;-88
2023/07/06 09:05:16;;;;;;;1.80;1.70;;;21.60;76.90;;;;;;4973185;28;20469;-91
2023/07/06 09:07:44;;;;;;;1.63;1.57;;;21.50;77.10;;;;;;4973516;28;20513;-89
2023/07/06 09:10:12;;;;;;;3.97;2.30;;;21.60;77.40;;;;;;4973413;28;20434;-90
2023/07/06 09:12:39;;;;;;;1.13;1.10;;;21.60;77.70;;;;;;4973537;28;20426;-93
2023/07/06 09:15:08;;;;;;;1.17;1.10;;;21.60;77.30;;;;;;4975904;28;20924;-89
2023/07/06 09:17:34;;;;;;;1.37;1.20;;;21.50;76.60;;;;;;4977167;28;20478;-91
2023/07/06 09:20:03;;;;;;;3.63;1.30;;;21.60;76.90;;;;;;4972022;28;20919;-90
2023/07/06 09:22:29;;;;;;;2.30;1.47;;;21.60;77.40;;;;;;4974751;28;20446;-90
2023/07/06 09:25:00;;;;;;;1.43;1.37;;;21.60;77.10;;;;;;4974163;28;20955;-90
2023/07/06 09:27:28;;;;;;;1.10;1.00;;;21.50;77.30;;;;;;4973599;28;20336;-90
2023/07/06 09:30:07;;;;;;;1.73;1.03;;;21.50;76.90;;;;;;4973009;28;20759;-91
2023/07/06 09:32:35;;;;;;;1.20;1.07;;;21.50;77.40;;;;;;4975399;28;20424;-91
2023/07/06 09:35:08;;;;;;;2.93;1.63;;;21.60;76.90;;;;;;4973705;28;20426;-92
2023/07/06 09:37:43;;;;;;;1.57;1.30;;;21.80;77.10;;;;;;4973879;28;20520;-90
2023/07/06 09:40:09;;;;;;;2.00;1.30;;;21.90;77.00;;;;;;4974286;28;20577;-90
2023/07/06 09:42:35;;;;;;;2.90;1.30;;;22.00;77.20;;;;;;4974928;28;20480;-91
2023/07/06 09:45:04;;;;;;;1.97;1.50;;;22.10;75.80;;;;;;4974075;28;20429;-91
2023/07/06 09:47:33;;;;;;;1.63;1.50;;;22.10;75.20;;;;;;4973290;28;20242;-91
2023/07/06 09:50:13;;;;;;;1.00;0.90;;;22.10;74.10;;;;;;4971968;28;20425;-91
2023/07/06 09:52:39;;;;;;;1.40;1.30;;;22.10;75.50;;;;;;4972192;28;20426;-92
2023/07/06 09:55:14;;;;;;;3.23;1.73;;;22.00;75.70;;;;;;4972220;28;20998;-90
2023/07/06 09:57:40;;;;;;;2.03;1.70;;;22.00;75.40;;;;;;4971993;28;20462;-90
2023/07/06 10:00:22;;;;;;;1.00;0.90;;;21.90;75.50;;;;;;4973186;28;20460;-91
2023/07/06 10:03:31;;;;;;;1.40;1.30;;;22.00;76.20;;;;;;4972250;28;20421;-92
2023/07/06 10:06:42;;;;;;;1.40;1.30;;;22.00;75.50;;;;;;4970809;28;20446;-90
2023/07/06 10:09:15;;;;;;;1.13;1.03;;;22.10;75.30;;;;;;4971840;28;20426;-91
2023/07/06 10:11:52;;;;;;;1.10;1.00;;;22.20;75.30;;;;;;4972044;28;20509;-90
2023/07/06 10:14:26;;;;;;;1.07;0.97;;;22.30;75.30;;;;;;4970813;28;20497;-90
2023/07/06 10:17:30;;;;;;;1.30;1.20;;;22.40;75.00;;;;;;4995349;23;20490;-91
2023/07/06 10:20:05;;;;;;;0.87;0.83;;;22.60;73.60;;;;;;4991032;28;20691;-92
2023/07/06 10:22:36;;;;;;;1.30;1.10;;;22.80;73.70;;;;;;5005092;28;20429;-93
2023/07/06 10:25:33;;;;;;;1.50;1.07;;;22.90;73.20;;;;;;4976784;28;20426;-92
2023/07/06 10:28:13;;;;;;;16.40;1.63;;;23.00;72.70;;;;;;4954979;28;20844;-90
2023/07/06 10:30:46;;;;;;;1.07;0.90;;;23.20;72.20;;;;;;4951007;28;20649;-88
2023/07/06 10:34:08;;;;;;;1.10;1.00;;;23.40;72.10;;;;;;4953618;29;20498;-86
2023/07/06 10:36:35;;;;;;;1.00;0.90;;;23.60;72.10;;;;;;4915728;28;20474;-89
2023/07/06 10:39:50;;;;;;;1.33;1.20;;;23.80;71.40;;;;;;4949906;29;20513;-91
2023/07/06 10:42:25;;;;;;;5.40;1.67;;;23.90;70.70;;;;;;4948949;29;20543;-91
2023/07/06 10:45:15;;;;;;;4.00;1.63;;;23.80;70.60;;;;;;4956628;28;20545;-91
2023/07/06 10:47:44;;;;;;;1.10;1.00;;;23.50;71.10;;;;;;4938404;28;20451;-91
2023/07/06 10:50:19;;;;;;;0.90;0.80;;;23.30;72.20;;;;;;4950637;29;20431;-91
2023/07/06 10:53:02;;;;;;;1.97;1.47;;;23.10;72.00;;;;;;4949270;29;20505;-91
2023/07/06 10:55:34;;;;;;;1.30;1.20;;;22.90;72.10;;;;;;4941853;28;20420;-92
2023/07/06 10:58:33;;;;;;;5.30;1.63;;;22.90;72.70;;;;;;4949337;28;20501;-91
2023/07/06 11:01:09;;;;;;;1.33;1.20;;;23.00;72.90;;;;;;4916316;28;20441;-91
2023/07/06 11:03:36;;;;;;;4.10;1.93;;;23.10;73.60;;;;;;4952079;29;20427;-92
2023/07/06 11:06:07;;;;;;;1.37;1.00;;;23.20;72.10;;;;;;4948885;29;20418;-92
2023/07/06 11:09:09;;;;;;;8.53;1.47;;;23.30;71.30;;;;;;4950618;28;20450;-90
2023/07/06 11:11:49;;;;;;;3.87;2.07;;;23.30;70.90;;;;;;4950495;28;20522;-91
2023/07/06 11:14:48;;;;;;;2.07;1.73;;;23.30;71.00;;;;;;4949979;28;20426;-91
2023/07/06 11:17:31;;;;;;;2.63;1.23;;;23.50;73.10;;;;;;4964075;28;20782;-91
2023/07/06 11:20:16;;;;;;;1.00;0.90;;;23.70;71.30;;;;;;4949811;29;20782;-91
2023/07/06 11:22:45;;;;;;;1.00;0.93;;;23.80;71.80;;;;;;4944481;29;20419;-91
2023/07/06 11:25:13;;;;;;;1.30;1.20;;;23.60;69.80;;;;;;4950229;28;20518;-91
2023/07/06 11:27:48;;;;;;;1.30;1.20;;;23.50;70.40;;;;;;4949461;28;20499;-89
2023/07/06 11:30:28;;;;;;;5.60;1.67;;;23.30;70.90;;;;;;4961402;28;20425;-91
2023/07/06 11:33:28;;;;;;;2.77;2.07;;;23.40;71.50;;;;;;4956355;29;20472;-91
2023/07/06 11:36:11;;;;;;;1.20;1.10;;;23.50;71.60;;;;;;4948765;28;20470;-91
2023/07/06 11:39:00;;;;;;;1.37;1.10;;;23.60;71.70;;;;;;4973249;23;20497;-74
2023/07/06 11:41:37;;;;;;;2.70;1.67;;;23.70;72.50;;;;;;4967734;28;20875;-75
2023/07/06 11:44:13;;;;;;;2.97;2.00;;;23.70;71.00;;;;;;4971081;28;20813;-74
2023/07/06 11:46:48;;;;;;;3.50;1.17;;;23.70;71.10;;;;;;4973028;28;20829;-74
2023/07/06 11:49:45;;;;;;;1.30;1.20;;;24.00;72.10;;;;;;4971205;28;20838;-74
2023/07/06 11:52:37;;;;;;;2.77;1.23;;;24.20;71.10;;;;;;4972665;28;20500;-75
2023/07/06 11:55:28;;;;;;;0.83;0.80;;;24.40;70.20;;;;;;4972733;28;20484;-74
2023/07/06 11:58:05;;;;;;;2.20;1.40;;;24.50;71.00;;;;;;4973253;28;20486;-72
2023/07/06 12:00:48;;;;;;;1.20;1.10;;;24.50;69.40;;;;;;4969792;28;21020;-73
2023/07/06 12:03:15;;;;;;;0.90;0.90;;;24.40;70.60;;;;;;4969748;28;20417;-73
2023/07/06 12:05:46;;;;;;;2.40;1.30;;;24.20;69.80;;;;;;4969641;28;20837;-74
2023/07/06 12:08:27;;;;;;;1.83;1.53;;;24.20;70.70;;;;;;4970433;28;20437;-74
2023/07/06 12:11:01;;;;;;;1.33;1.00;;;24.30;70.60;;;;;;4970869;28;20467;-75
2023/07/06 12:13:55;;;;;;;1.40;1.30;;;24.50;68.60;;;;;;4964818;28;20918;-74
2023/07/06 12:16:23;;;;;;;1.37;1.03;;;24.70;70.10;;;;;;4968214;28;20473;-74
2023/07/06 12:19:03;;;;;;;1.43;1.33;;;24.90;68.80;;;;;;4971125;28;20437;-74
2023/07/06 12:21:34;;;;;;;0.80;0.80;;;25.00;68.60;;;;;;4963293;28;20572;-77
2023/07/06 12:24:06;;;;;;;1.10;1.00;;;25.20;68.20;;;;;;4972449;28;20851;-75
2023/07/06 12:26:32;;;;;;;2.13;1.90;;;25.30;68.00;;;;;;4964028;28;20460;-77
2023/07/06 12:28:59;;;;;;;1.03;1.00;;;25.50;67.80;;;;;;4971992;28;20941;-73
2023/07/06 12:31:27;;;;;;;2.17;1.20;;;25.60;67.60;;;;;;4970552;28;20438;-74
2023/07/06 12:33:57;;;;;;;1.13;1.03;;;25.60;67.00;;;;;;4970486;28;20994;-73
2023/07/06 12:36:28;;;;;;;1.10;0.90;;;25.50;67.50;;;;;;4970660;28;20465;-76
2023/07/06 12:38:56;;;;;;;1.63;1.07;;;25.40;67.00;;;;;;4969901;28;20837;-74
2023/07/06 12:41:23;;;;;;;2.43;1.93;;;25.30;67.30;;;;;;4970638;28;20547;-76
2023/07/06 12:43:49;;;;;;;2.03;1.80;;;25.40;66.30;;;;;;4961168;28;20432;-76
2023/07/06 12:46:21;;;;;;;1.20;1.10;;;25.40;66.90;;;;;;4966414;28;20442;-72
2023/07/06 12:48:51;;;;;;;2.30;1.70;;;25.40;66.90;;;;;;4951434;28;20808;-74
2023/07/06 12:51:24;;;;;;;3.40;1.33;;;25.40;67.00;;;;;;4969480;28;20513;-76
2023/07/06 12:53:51;;;;;;;1.70;1.20;;;25.60;66.20;;;;;;4971233;28;20442;-74
2023/07/06 12:56:20;;;;;;;1.30;1.20;;;25.80;66.90;;;;;;4948865;28;20477;-76
2023/07/06 12:58:53;;;;;;;10.20;1.80;;;25.90;65.80;;;;;;4978029;28;20425;-75
2023/07/06 13:01:20;;;;;;;1.00;0.90;;;26.10;66.00;;;;;;4974844;28;20858;-75
2023/07/06 13:03:56;;;;;;;1.40;1.30;;;26.20;66.10;;;;;;4976493;28;20795;-75
2023/07/06 13:06:25;;;;;;;2.40;1.63;;;26.20;65.40;;;;;;4986636;28;20434;-77
2023/07/06 13:09:00;;;;;;;2.00;1.00;;;26.10;65.30;;;;;;4963968;28;20434;-74
2023/07/06 13:11:28;;;;;;;1.27;1.27;;;26.10;65.10;;;;;;4971268;28;20452;-75
2023/07/06 13:14:04;;;;;;;0.90;0.80;;;25.90;64.60;;;;;;4966131;28;20429;-75
2023/07/06 13:16:41;;;;;;;2.30;1.20;;;25.60;64.60;;;;;;4961965;28;20480;-74
2023/07/06 13:19:10;;;;;;;1.10;1.10;;;25.40;65.20;;;;;;4968643;28;20436;-75
2023/07/06 13:21:37;;;;;;;2.00;1.30;;;25.20;65.00;;;;;;4969253;28;20537;-75
2023/07/06 13:24:03;;;;;;;1.10;1.00;;;25.20;65.80;;;;;;4958791;28;20429;-74
2023/07/06 13:26:32;;;;;;;2.70;1.47;;;25.30;67.10;;;;;;4961791;28;20806;-80
2023/07/06 13:28:58;;;;;;;0.80;0.77;;;25.50;65.90;;;;;;4974779;28;20945;-76
2023/07/06 13:31:27;;;;;;;1.17;1.00;;;25.60;66.70;;;;;;4967369;28;20544;-76
2023/07/06 13:33:53;;;;;;;1.30;1.00;;;25.80;66.40;;;;;;4967597;28;20465;-71
2023/07/06 13:36:19;;;;;;;1.37;1.27;;;26.10;65.50;;;;;;4966887;28;20557;-75
2023/07/06 13:38:48;;;;;;;3.83;1.77;;;26.20;65.60;;;;;;4968403;28;20549;-74
2023/07/06 13:41:19;;;;;;;4.93;1.30;;;26.30;65.00;;;;;;4970150;28;20993;-75
2023/07/06 13:43:46;;;;;;;1.20;1.10;;;26.30;65.00;;;;;;4977303;28;20445;-75
2023/07/06 13:46:13;;;;;;;1.37;1.20;;;26.40;65.20;;;;;;4969372;28;20437;-74
2023/07/06 13:48:39;;;;;;;1.00;0.90;;;26.60;64.70;;;;;;4985757;28;20437;-75
2023/07/06 13:51:06;;;;;;;5.20;1.10;;;26.80;64.60;;;;;;4969652;28;20869;-75
2023/07/06 13:53:32;;;;;;;1.20;1.10;;;26.90;63.70;;;;;;4964904;28;20428;-76
2023/07/06 13:56:01;;;;;;;1.17;1.10;;;27.00;64.80;;;;;;4977441;28;20989;-73
2023/07/06 13:58:30;;;;;;;2.30;1.27;;;27.20;64.90;;;;;;4970041;28;20824;-76
2023/07/06 14:00:56;;;;;;;1.20;1.10;;;27.20;62.60;;;;;;4969168;28;20449;-76
2023/07/06 14:03:25;;;;;;;1.07;0.97;;;27.20;62.70;;;;;;4968795;28;20487;-75
2023/07/06 14:05:54;;;;;;;2.43;1.33;;;27.20;63.70;;;;;;4952913;28;20821;-75
2023/07/06 14:08:21;;;;;;;2.23;1.70;;;27.20;63.60;;;;;;4969211;28;20434;-76
2023/07/06 14:10:48;;;;;;;1.33;1.13;;;27.20;62.70;;;;;;4968579;28;20477;-75
2023/07/06 14:13:16;;;;;;;5.90;1.47;;;27.20;63.60;;;;;;4968925;28;20441;-74
2023/07/06 14:15:43;;;;;;;1.13;1.10;;;27.20;64.10;;;;;;4970350;28;20426;-76
2023/07/06 14:18:09;;;;;;;1.73;1.00;;;27.20;63.70;;;;;;4969808;28;20981;-73
2023/07/06 14:20:36;;;;;;;1.30;1.20;;;27.10;63.30;;;;;;4968482;28;20964;-76
2023/07/06 14:23:05;;;;;;;1.30;1.23;;;26.80;64.10;;;;;;4968690;28;20474;-79
2023/07/06 14:25:35;;;;;;;1.00;0.90;;;26.60;63.80;;;;;;4969211;28;20422;-74
2023/07/06 14:28:03;;;;;;;1.10;1.00;;;26.50;63.50;;;;;;4968926;28;20453;-74
2023/07/06 14:30:30;;;;;;;1.30;1.00;;;26.40;63.60;;;;;;4978009;28;20544;-75
2023/07/06 14:32:58;;;;;;;1.00;0.90;;;26.40;65.30;;;;;;4969144;28;20453;-76
2023/07/06 14:35:24;;;;;;;1.23;1.20;;;26.40;64.40;;;;;;4962556;28;20434;-75
2023/07/06 14:37:51;;;;;;;1.47;1.13;;;26.30;64.50;;;;;;4963589;28;20507;-75
2023/07/06 14:40:17;;;;;;;1.80;1.50;;;26.10;64.20;;;;;;4966998;28;20210;-75
2023/07/06 14:42:44;;;;;;;1.53;1.10;;;26.10;63.80;;;;;;4968487;28;20516;-75
2023/07/06 14:45:10;;;;;;;1.10;1.00;;;26.20;64.30;;;;;;4968401;28;20954;-74
2023/07/06 14:47:36;;;;;;;6.27;1.57;;;26.20;65.60;;;;;;4977663;28;20414;-75
2023/07/06 14:50:04;;;;;;;1.00;1.00;;;26.10;63.80;;;;;;4968908;28;20264;-75
2023/07/06 14:52:31;;;;;;;3.60;1.60;;;26.00;65.10;;;;;;4964463;28;20178;-74
2023/07/06 14:54:57;;;;;;;1.20;1.10;;;25.90;65.50;;;;;;4968900;28;21043;-75
2023/07/06 14:57:24;;;;;;;6.57;1.63;;;25.90;64.80;;;;;;4954247;28;21257;-77
2023/07/06 14:59:50;;;;;;;6.63;2.47;;;26.00;64.80;;;;;;4969151;28;20190;-75
2023/07/06 15:02:16;;;;;;;2.57;1.77;;;26.00;65.40;;;;;;4965523;28;20830;-75
2023/07/06 15:04:41;;;;;;;1.90;1.37;;;26.00;65.60;;;;;;4964222;28;20179;-74
2023/07/06 15:07:09;;;;;;;1.77;1.30;;;26.10;65.10;;;;;;4969100;28;20655;-74
2023/07/06 15:09:35;;;;;;;3.67;1.30;;;26.20;65.80;;;;;;4962127;28;20178;-75
2023/07/06 15:12:00;;;;;;;4.60;1.87;;;26.40;65.00;;;;;;4967207;28;20496;-74
2023/07/06 15:14:26;;;;;;;0.90;0.90;;;26.50;64.70;;;;;;4973327;28;20182;-76
2023/07/06 15:16:51;;;;;;;1.20;1.10;;;26.70;63.60;;;;;;4962831;28;20223;-75
2023/07/06 15:19:17;;;;;;;1.63;1.30;;;26.70;64.20;;;;;;4967706;28;20178;-75
2023/07/06 15:21:43;;;;;;;3.17;1.23;;;26.70;64.30;;;;;;4984092;28;20469;-75
2023/07/06 15:24:09;;;;;;;1.10;1.00;;;26.60;64.90;;;;;;4967503;28;20202;-75
2023/07/06 15:26:34;;;;;;;1.20;1.00;;;26.60;64.30;;;;;;4954520;28;20784;-74
2023/07/06 15:29:00;;;;;;;1.30;1.20;;;26.60;64.60;;;;;;4968384;28;20610;-75
2023/07/06 15:31:26;;;;;;;4.67;1.20;;;26.70;64.10;;;;;;4967688;28;20202;-73
2023/07/06 15:33:53;;;;;;;1.30;1.00;;;26.60;63.40;;;;;;4967408;28;20773;-74
2023/07/06 15:36:20;;;;;;;1.00;1.00;;;26.60;64.70;;;;;;4969716;28;20210;-75
2023/07/06 15:38:46;;;;;;;2.17;1.73;;;26.50;63.10;;;;;;4952210;28;20474;-75
2023/07/06 15:41:11;;;;;;;0.97;0.93;;;26.30;64.10;;;;;;4983734;28;20969;-74
2023/07/06 15:43:37;;;;;;;1.47;1.10;;;26.20;64.10;;;;;;4979083;28;20208;-74
2023/07/06 15:46:02;;;;;;;1.83;1.70;;;26.00;63.70;;;;;;4972260;28;20177;-74
2023/07/06 15:48:28;;;;;;;1.90;1.50;;;25.90;64.50;;;;;;4967613;28;20639;-75
2023/07/06 15:50:55;;;;;;;3.37;1.43;;;26.00;64.60;;;;;;4968722;28;20199;-75
2023/07/06 15:53:21;;;;;;;1.13;1.10;;;26.10;64.30;;;;;;4969005;28;20202;-74
2023/07/06 15:55:46;;;;;;;1.10;1.00;;;26.00;65.20;;;;;;4967547;28;20465;-74
2023/07/06 15:58:12;;;;;;;1.30;1.20;;;25.90;65.60;;;;;;4969944;28;20596;-74
2023/07/06 16:00:40;;;;;;;2.10;1.47;;;25.80;65.40;;;;;;4962369;28;20204;-74
2023/07/06 16:03:05;;;;;;;2.97;1.47;;;25.70;65.40;;;;;;4971453;28;20438;-74
2023/07/06 16:05:31;;;;;;;2.03;1.23;;;25.60;65.40;;;;;;4966178;28;20942;-74
2023/07/06 16:07:57;;;;;;;1.40;1.30;;;25.50;66.00;;;;;;4967322;28;20214;-75
2023/07/06 16:10:23;;;;;;;1.40;1.20;;;25.40;65.90;;;;;;4966774;28;20217;-75
2023/07/06 16:12:49;;;;;;;1.30;1.10;;;25.30;66.10;;;;;;4967479;28;20426;-74
2023/07/06 16:15:15;;;;;;;1.47;1.37;;;25.20;66.10;;;;;;4967209;28;20422;-74
2023/07/06 16:17:42;;;;;;;1.37;1.30;;;25.10;66.60;;;;;;4988016;23;20217;-91
2023/07/06 16:20:08;;;;;;;1.00;0.90;;;25.10;67.50;;;;;;4978627;28;20521;-88
2023/07/06 16:22:34;;;;;;;4.60;1.40;;;25.10;67.60;;;;;;4989564;28;20445;-86
2023/07/06 16:24:59;;;;;;;1.40;1.07;;;25.10;67.10;;;;;;4988957;28;20182;-88
2023/07/06 16:27:25;;;;;;;1.23;1.00;;;25.10;66.80;;;;;;4989159;28;20177;-88
2023/07/06 16:29:54;;;;;;;1.67;1.10;;;25.10;67.00;;;;;;4991739;28;20224;-89
2023/07/06 16:32:19;;;;;;;1.23;1.13;;;25.10;66.50;;;;;;4984349;28;20197;-86
2023/07/06 16:34:46;;;;;;;1.27;1.00;;;25.00;66.20;;;;;;4977852;28;20997;-89
2023/07/06 16:37:14;;;;;;;1.57;1.27;;;25.00;66.70;;;;;;4983388;28;20198;-85
2023/07/06 16:39:40;;;;;;;0.97;0.93;;;25.00;67.20;;;;;;4981367;28;21015;-86
2023/07/06 16:42:05;;;;;;;1.20;1.10;;;25.30;68.50;;;;;;4982396;28;20424;-88
2023/07/06 16:44:31;;;;;;;1.17;1.07;;;25.50;67.90;;;;;;4982426;28;20182;-89
2023/07/06 16:46:56;;;;;;;1.10;1.00;;;25.60;67.20;;;;;;4980670;28;20257;-87
2023/07/06 16:49:22;;;;;;;1.93;1.53;;;25.60;67.00;;;;;;4976065;28;20549;-86
2023/07/06 16:51:47;;;;;;;1.37;1.10;;;25.50;67.50;;;;;;4973768;28;20175;-86
2023/07/06 16:54:13;;;;;;;1.10;1.00;;;25.30;67.70;;;;;;4973217;28;20182;-89
2023/07/06 16:56:38;;;;;;;1.03;0.93;;;25.20;67.30;;;;;;4993569;28;20207;-90
2023/07/06 16:59:05;;;;;;;1.83;1.63;;;25.00;67.30;;;;;;4980092;28;20202;-87
2023/07/06 17:01:34;;;;;;;13.47;1.60;;;24.90;67.90;;;;;;4973090;28;20210;-87
2023/07/06 17:03:59;;;;;;;1.37;1.27;;;24.80;66.50;;;;;;4973782;28;20425;-89